ADDS METAR Data INFO
IDs: Format: Raw Decoded Include TAF

Data at: 0319 UTC 18 Aug 2017

KLVJ 180253Z AUTO 00000KT 10SM CLR 30/24 A3003 RMK AO2 SLP166 T03000244 53020
KLVJ 180153Z AUTO 17005KT 10SM CLR 31/24 A3000 RMK AO2 SLP158 T03060244
KLVJ 180053Z AUTO 17007KT 10SM CLR 32/23 A2998 RMK AO2 SLP152 T03220228
KLVJ 172353Z AUTO 18011KT 10SM CLR 34/21 A2997 RMK AO2 SLP146 T03390211 10367 20339 56015
KLVJ 172253Z AUTO 17008KT 10SM CLR 35/22 A2998 RMK AO2 SLP150 T03500217
KLVJ 172153Z AUTO 19009G14KT 10SM CLR 36/21 A2999 RMK AO2 SLP153 T03560211
KLVJ 172053Z AUTO 20006KT 10SM CLR 36/21 A3001 RMK AO2 SLP161 T03610206 58016
KLVJ 171953Z AUTO 19008KT 10SM FEW050 36/22 A3003 RMK AO2 SLP168 T03610217
KLVJ 171853Z AUTO 18008KT 10SM FEW055 36/20 A3005 RMK AO2 SLP174 T03610200
KLVJ 171753Z AUTO VRB06KT 10SM CLR 35/20 A3006 RMK AO2 SLP176 T03500200 10356 20278 58004
KLVJ 171653Z AUTO 18010KT 10SM SCT041 34/22 A3007 RMK AO2 SLP182 T03440222
KLVJ 171553Z AUTO 20007KT 10SM FEW038 33/22 A3008 RMK AO2 SLP184 T03330222
KLVJ 171453Z AUTO 21009KT 180V240 9SM CLR 32/24 A3007 RMK AO2 SLP181 T03220239 53012
KLVJ 171353Z AUTO 21004KT 9SM CLR 31/24 A3005 RMK AO2 SLP175 T03110244
KLVJ 171253Z AUTO 20003KT 8SM CLR 29/25 A3004 RMK AO2 SLP170 T02890250
KLVJ 171153Z AUTO 00000KT 9SM CLR 28/24 A3003 RMK AO2 SLP169 T02830244 10306 20283 53006
KLVJ 171053Z AUTO 18005KT 9SM CLR 29/24 A3001 RMK AO2 SLP162 T02890244
KLVJ 170953Z AUTO 20005KT 9SM CLR 29/25 A3001 RMK AO2 SLP161 T02940250
KLVJ 170853Z AUTO 19006KT 9SM CLR 30/26 A3001 RMK AO2 SLP162 T03000256 53005
KLVJ 170753Z AUTO 19008KT 9SM CLR 30/26 A3000 RMK AO2 SLP159 T03000256
KLVJ 170653Z AUTO 17008KT 9SM CLR 30/26 A3000 RMK AO2 SLP159 T03000256 TSNO
KLVJ 170553Z AUTO 17007KT 9SM FEW031 30/26 A3000 RMK AO2 SLP157 T03000256 10328 20300 403560283 53002 TSNO
KLVJ 170453Z AUTO 16005KT 9SM CLR 30/26 A2999 RMK AO2 SLP156 T03000256 TSNO
KLVJ 170353Z AUTO 16005KT 9SM FEW023 BKN032 30/26 A2999 RMK AO2 SLP155 T03000256 TSNO
KLVJ 170253Z AUTO 17004KT 10SM CLR 31/25 A2999 RMK AO2 SLP155 T03060250 53011
KLVJ 170153Z AUTO 16006KT 10SM CLR 31/25 A2997 RMK AO2 SLP148 T03110250
KLVJ 170053Z AUTO 16010KT 9SM CLR 32/24 A2996 RMK AO2 SLP145 T03170244
KLVJ 162353Z AUTO 16009KT 9SM FEW030 33/24 A2996 RMK AO2 SLP144 60000 T03280244 10356 20328 50001
KLVJ 162253Z AUTO 16010KT 9SM FEW040 34/23 A2996 RMK AO2 SLP146 T03390233
KLVJ 162153Z AUTO 20011KT 10SM SCT041 SCT050 34/23 A2995 RMK AO2 SLP142 T03440228
KLVJ 162053Z AUTO 18014G19KT 10SM FEW041 35/22 A2996 RMK AO2 SLP143 60000 T03500222 56015
KLVJ 161953Z AUTO 18012G17KT 10SM SCT037 BKN048 36/23 A2996 RMK AO2 SLP146 T03560233
KLVJ 161853Z AUTO 18014G18KT 10SM CLR 34/24 A2999 RMK AO2 RAB1757E06 SLP153 P0000 T03440239
KLVJ 161753Z AUTO 18017G23KT 10SM SCT040 SCT047 34/23 A3000 RMK AO2 SLP157 T03440233 10350 20289 50004
KLVJ 161653Z AUTO 20008KT 10SM FEW036 SCT049 34/23 A3001 RMK AO2 SLP160 T03440233
KLVJ 161553Z AUTO 19009G19KT 10SM FEW034 SCT046 BKN055 33/23 A3001 RMK AO2 SLP160 T03280233